Time;durP1;ratioP1;P1;durP2;ratioP2;P2;SDS_P1;SDS_P2;PMS_P1;PMS_P2;Temp;Humidity;BMP_temperature;BMP_pressure;BME280_temperature;BME280_humidity;BME280_pressure;Samples;Min_cycle;Max_cycle;Signal;HPM_P1;HPM_P2
2021/12/12 00:00:20;;;;;;;7.18;2.67;;;;;;;;;;4913464;29;20074;-68
2021/12/12 00:02:59;;;;;;;9.73;2.60;;;;;;;;;;4913642;29;20056;-68
2021/12/12 00:05:49;;;;;;;7.13;3.10;;;;;;;;;;4934789;28;20059;-67
2021/12/12 00:08:22;;;;;;;7.88;3.55;;;;;;;;;;4970889;28;20419;-67
2021/12/12 00:11:02;;;;;;;7.72;2.67;;;;;;;;;;4970963;28;20061;-69
2021/12/12 00:13:42;;;;;;;95.68;43.65;;;;;;;;;;4913540;29;20464;-67
2021/12/12 00:16:14;;;;;;;8.90;5.22;;;;;;;;;;4913456;29;20060;-67
2021/12/12 00:18:45;;;;;;;7.30;2.97;;;;;;;;;;4894271;29;20060;-68
2021/12/12 00:21:18;;;;;;;8.00;3.38;;;;;;;;;;4894412;29;20061;-67
2021/12/12 00:23:49;;;;;;;7.28;3.25;;;;;;;;;;4879115;29;20057;-69
2021/12/12 00:26:21;;;;;;;9.68;3.78;;;;;;;;;;4894688;29;20060;-68
2021/12/12 00:28:53;;;;;;;6.05;3.53;;;;;;;;;;4894577;29;20060;-68
2021/12/12 00:31:25;;;;;;;6.60;3.05;;;;;;;;;;4919132;29;20100;-68
2021/12/12 00:33:57;;;;;;;6.35;2.72;;;;;;;;;;4931778;29;20532;-70
2021/12/12 00:36:29;;;;;;;7.55;2.72;;;;;;;;;;4934368;28;20067;-68
2021/12/12 00:39:05;;;;;;;8.77;2.72;;;;;;;;;;4954361;28;20058;-68
2021/12/12 00:41:50;;;;;;;6.60;2.78;;;;;;;;;;4970578;28;20087;-68
2021/12/12 00:44:23;;;;;;;8.30;2.53;;;;;;;;;;4922834;28;20055;-68
2021/12/12 00:46:58;;;;;;;9.18;3.22;;;;;;;;;;4970382;28;20053;-68
2021/12/12 00:49:33;;;;;;;10.90;3.20;;;;;;;;;;4970413;28;20058;-68
2021/12/12 00:52:06;;;;;;;4.93;2.38;;;;;;;;;;4981223;28;20061;-71
2021/12/12 00:54:39;;;;;;;8.27;3.10;;;;;;;;;;4990167;28;20066;-68
2021/12/12 00:57:14;;;;;;;5.45;2.65;;;;;;;;;;4934891;29;20069;-69
2021/12/12 00:59:46;;;;;;;4.45;2.42;;;;;;;;;;4948622;29;20066;-68
2021/12/12 01:02:26;;;;;;;8.80;3.15;;;;;;;;;;4931628;29;20425;-68
2021/12/12 01:05:01;;;;;;;6.78;2.72;;;;;;;;;;4932008;29;20063;-75
2021/12/12 01:07:36;;;;;;;6.93;2.75;;;;;;;;;;4912585;29;20063;-69
2021/12/12 01:10:16;;;;;;;7.30;2.88;;;;;;;;;;4912735;29;20509;-69
2021/12/12 01:12:47;;;;;;;6.97;2.95;;;;;;;;;;4913117;29;20049;-69
2021/12/12 01:15:29;;;;;;;7.65;2.72;;;;;;;;;;4913137;29;20064;-68
2021/12/12 01:18:04;;;;;;;6.60;2.95;;;;;;;;;;4912621;29;20048;-69
2021/12/12 01:20:46;;;;;;;11.77;3.17;;;;;;;;;;4874815;29;20057;-69
2021/12/12 01:23:30;;;;;;;4.85;2.50;;;;;;;;;;4875494;29;20061;-68
2021/12/12 01:26:02;;;;;;;7.63;3.10;;;;;;;;;;4892971;29;20060;-68
2021/12/12 01:28:35;;;;;;;9.02;3.90;;;;;;;;;;4875662;29;20446;-69
2021/12/12 01:31:10;;;;;;;8.48;3.28;;;;;;;;;;4952738;28;20051;-69
2021/12/12 01:33:41;;;;;;;14.20;3.30;;;;;;;;;;4954190;28;20062;-70
2021/12/12 01:36:30;;;;;;;9.52;3.13;;;;;;;;;;4954526;28;20069;-68
2021/12/12 01:39:01;;;;;;;10.88;2.92;;;;;;;;;;4958947;28;20070;-69
2021/12/12 01:41:52;;;;;;;10.30;2.90;;;;;;;;;;4993219;28;20046;-68
2021/12/12 01:44:28;;;;;;;11.88;3.28;;;;;;;;;;4989504;28;20069;-69
2021/12/12 01:47:19;;;;;;;12.50;4.72;;;;;;;;;;4973774;28;20447;-69
2021/12/12 01:49:55;;;;;;;11.20;3.28;;;;;;;;;;4983760;28;20073;-69
2021/12/12 01:52:28;;;;;;;9.68;3.30;;;;;;;;;;5012299;28;20061;-69
2021/12/12 01:55:13;;;;;;;8.77;3.95;;;;;;;;;;5017117;28;20391;-70
2021/12/12 01:57:45;;;;;;;9.93;3.58;;;;;;;;;;4992263;28;20074;-69
2021/12/12 02:00:22;;;;;;;11.48;3.85;;;;;;;;;;4953748;29;20047;-69
2021/12/12 02:02:53;;;;;;;8.93;3.38;;;;;;;;;;4957230;28;20058;-70
2021/12/12 02:05:26;;;;;;;9.98;3.70;;;;;;;;;;4969283;28;20047;-70
2021/12/12 02:08:02;;;;;;;10.77;4.03;;;;;;;;;;4953860;29;20066;-69
2021/12/12 02:10:40;;;;;;;13.13;3.40;;;;;;;;;;4953947;29;20055;-69
2021/12/12 02:13:14;;;;;;;10.85;3.85;;;;;;;;;;4906314;29;20043;-69
2021/12/12 02:15:50;;;;;;;10.65;3.85;;;;;;;;;;4972853;28;20047;-70
2021/12/12 02:18:32;;;;;;;8.95;3.53;;;;;;;;;;4953384;29;20051;-71
2021/12/12 02:24:35;;;;;;;10.18;4.15;;;;;;;;;;4953266;29;20059;-70
2021/12/12 02:38:07;;;;;;;8.05;3.78;;;;;;;;;;4967378;28;20057;-70
2021/12/12 02:40:43;;;;;;;9.15;4.13;;;;;;;;;;4992095;28;20430;-70
2021/12/12 02:43:18;;;;;;;8.82;3.30;;;;;;;;;;4980543;28;20059;-71
2021/12/12 02:45:54;;;;;;;9.68;4.40;;;;;;;;;;4940432;28;20411;-70
2021/12/12 02:48:33;;;;;;;16.30;4.30;;;;;;;;;;4972641;28;20061;-70
2021/12/12 02:51:09;;;;;;;15.55;4.35;;;;;;;;;;4972436;28;20055;-70
2021/12/12 02:53:44;;;;;;;15.40;4.35;;;;;;;;;;4937262;29;20055;-71
2021/12/12 02:56:21;;;;;;;10.55;3.72;;;;;;;;;;4976494;28;20054;-71
2021/12/12 02:58:52;;;;;;;15.77;4.32;;;;;;;;;;4992015;28;20057;-71
2021/12/12 03:01:43;;;;;;;18.23;5.00;;;;;;;;;;4991661;28;20402;-71
2021/12/12 03:04:14;;;;;;;11.27;4.35;;;;;;;;;;4971980;28;20050;-71
2021/12/12 03:06:46;;;;;;;19.23;4.72;;;;;;;;;;4979653;28;20537;-70
2021/12/12 03:09:23;;;;;;;10.77;3.80;;;;;;;;;;5011271;28;20057;-70
2021/12/12 03:11:59;;;;;;;9.70;3.95;;;;;;;;;;5010983;28;20058;-70
2021/12/12 03:14:35;;;;;;;12.85;4.65;;;;;;;;;;5011017;28;20050;-69
2021/12/12 03:17:14;;;;;;;16.27;4.63;;;;;;;;;;5011047;28;20058;-70
2021/12/12 03:19:56;;;;;;;16.95;4.60;;;;;;;;;;4978186;28;20452;-70
2021/12/12 03:22:30;;;;;;;10.48;4.30;;;;;;;;;;4971376;28;20120;-71
2021/12/12 03:25:01;;;;;;;13.30;4.70;;;;;;;;;;4923354;28;20078;-71
2021/12/12 03:27:31;;;;;;;9.35;4.10;;;;;;;;;;4971673;28;20062;-72
2021/12/12 03:30:03;;;;;;;14.82;4.35;;;;;;;;;;4951970;29;20066;-72
2021/12/12 03:32:36;;;;;;;8.90;4.45;;;;;;;;;;4991191;28;20054;-72
2021/12/12 03:35:08;;;;;;;12.02;4.90;;;;;;;;;;4990668;28;20058;-72
2021/12/12 03:37:40;;;;;;;12.32;4.72;;;;;;;;;;4971114;28;20418;-71
2021/12/12 03:40:23;;;;;;;10.70;4.50;;;;;;;;;;4902275;29;20527;-72
2021/12/12 03:42:58;;;;;;;14.68;4.70;;;;;;;;;;4932919;29;20547;-71
2021/12/12 03:45:31;;;;;;;8.63;4.40;;;;;;;;;;4913667;29;20067;-72
2021/12/12 03:48:10;;;;;;;11.75;4.53;;;;;;;;;;4914086;29;20064;-72
2021/12/12 03:50:41;;;;;;;;;;;;;;;;;;4891850;29;20053;-72
2021/12/12 03:53:11;;;;;;;9.43;4.25;;;;;;;;;;4886767;29;19923;-73
2021/12/12 03:55:52;;;;;;;10.45;4.85;;;;;;;;;;4913735;29;20060;-73
2021/12/12 03:58:23;;;;;;;13.00;4.68;;;;;;;;;;4882459;29;20059;-73
2021/12/12 04:01:14;;;;;;;12.18;5.20;;;;;;;;;;4913472;29;20625;-74
2021/12/12 04:03:45;;;;;;;13.98;5.15;;;;;;;;;;4913491;29;20055;-72
2021/12/12 04:06:19;;;;;;;11.95;5.00;;;;;;;;;;4897998;29;20052;-73
2021/12/12 04:08:51;;;;;;;12.07;4.95;;;;;;;;;;4918424;29;20070;-72
2021/12/12 04:11:38;;;;;;;12.32;4.93;;;;;;;;;;4951555;29;20063;-73
2021/12/12 04:14:10;;;;;;;14.50;5.18;;;;;;;;;;4932157;29;20064;-73
2021/12/12 04:16:43;;;;;;;11.75;5.03;;;;;;;;;;4961847;28;20066;-74
2021/12/12 04:19:14;;;;;;;7.97;4.97;;;;;;;;;;4990150;28;20063;-74
2021/12/12 04:21:46;;;;;;;10.23;4.57;;;;;;;;;;4974753;28;20062;-73
2021/12/12 04:24:23;;;;;;;11.70;5.32;;;;;;;;;;4990211;28;20054;-73
2021/12/12 04:26:55;;;;;;;16.92;5.63;;;;;;;;;;4990771;28;20065;-73
2021/12/12 04:29:32;;;;;;;16.02;6.53;;;;;;;;;;5027910;28;20053;-74
2021/12/12 04:32:15;;;;;;;13.70;5.75;;;;;;;;;;5029312;28;20069;-74
2021/12/12 04:34:59;;;;;;;12.60;6.25;;;;;;;;;;4980623;28;20049;-73
2021/12/12 04:37:29;;;;;;;15.38;6.35;;;;;;;;;;4965180;28;20064;-73
2021/12/12 04:40:00;;;;;;;17.60;6.45;;;;;;;;;;5029301;28;20054;-74
2021/12/12 04:42:34;;;;;;;16.42;6.25;;;;;;;;;;5029328;28;20052;-75
2021/12/12 04:45:22;;;;;;;15.85;5.90;;;;;;;;;;4980449;28;20057;-74
2021/12/12 04:51:20;;;;;;;12.57;5.93;;;;;;;;;;5033138;28;20057;-73
2021/12/12 04:54:21;;;;;;;14.25;5.53;;;;;;;;;;5051763;28;20508;-74
2021/12/12 04:56:59;;;;;;;14.82;5.95;;;;;;;;;;5048801;28;20053;-74
2021/12/12 04:59:38;;;;;;;19.83;6.22;;;;;;;;;;4999861;28;20045;-74
2021/12/12 05:02:20;;;;;;;12.98;5.70;;;;;;;;;;5049154;28;20060;-73
2021/12/12 05:05:16;;;;;;;19.30;6.38;;;;;;;;;;5028917;28;20512;-73
2021/12/12 05:08:08;;;;;;;16.40;5.95;;;;;;;;;;4954451;29;20063;-74
2021/12/12 05:10:47;;;;;;;12.68;5.45;;;;;;;;;;4955104;29;20067;-73
2021/12/12 05:13:25;;;;;;;10.77;5.55;;;;;;;;;;4955076;29;20059;-72
2021/12/12 05:16:06;;;;;;;13.73;5.75;;;;;;;;;;4955063;29;20428;-73
2021/12/12 05:18:48;;;;;;;17.92;5.50;;;;;;;;;;4954679;29;20060;-73
2021/12/12 05:21:28;;;;;;;14.60;5.40;;;;;;;;;;4939006;29;20055;-73
2021/12/12 05:24:06;;;;;;;11.35;5.93;;;;;;;;;;4954389;29;20066;-73
2021/12/12 05:26:46;;;;;;;13.90;5.55;;;;;;;;;;4954559;29;20055;-73
2021/12/12 05:30:00;;;;;;;12.77;6.00;;;;;;;;;;4954759;29;20459;-73
2021/12/12 05:32:32;;;;;;;14.10;5.82;;;;;;;;;;4869605;29;20056;-72
2021/12/12 05:35:04;;;;;;;;;;;;;;;;;;4900007;29;20452;-73
2021/12/12 05:37:35;;;;;;;12.60;5.88;;;;;;;;;;4897549;29;19923;-72
2021/12/12 05:40:09;;;;;;;13.73;5.18;;;;;;;;;;4897339;29;20052;-73
2021/12/12 05:42:40;;;;;;;13.40;5.55;;;;;;;;;;4908279;29;20059;-73
2021/12/12 05:45:11;;;;;;;14.50;5.95;;;;;;;;;;4927554;29;20052;-73
2021/12/12 05:47:44;;;;;;;14.40;6.45;;;;;;;;;;4935414;29;20051;-73
2021/12/12 05:50:15;;;;;;;17.10;6.13;;;;;;;;;;4935034;29;20063;-73
2021/12/12 05:52:47;;;;;;;15.55;6.38;;;;;;;;;;4918684;29;20579;-74
2021/12/12 05:55:18;;;;;;;13.90;6.15;;;;;;;;;;4935154;29;20059;-73
2021/12/12 05:57:54;;;;;;;9.82;4.88;;;;;;;;;;4934899;29;20499;-73
2021/12/12 06:00:28;;;;;;;11.60;6.30;;;;;;;;;;4935122;29;20054;-72
2021/12/12 06:03:00;;;;;;;14.65;5.95;;;;;;;;;;4934863;29;20542;-73
2021/12/12 06:05:32;;;;;;;11.55;6.55;;;;;;;;;;4935084;29;20043;-73
2021/12/12 06:08:04;;;;;;;13.90;5.95;;;;;;;;;;4934554;29;20044;-73
2021/12/12 06:10:39;;;;;;;12.20;5.55;;;;;;;;;;5033985;28;20041;-72
2021/12/12 06:13:13;;;;;;;10.60;5.07;;;;;;;;;;5034195;28;20041;-74
2021/12/12 06:15:49;;;;;;;16.27;5.90;;;;;;;;;;5033661;28;20060;-72
2021/12/12 06:18:22;;;;;;;13.43;6.45;;;;;;;;;;5015749;28;20061;-73
2021/12/12 06:20:54;;;;;;;15.95;6.35;;;;;;;;;;5034216;28;20049;-73
2021/12/12 06:23:25;;;;;;;19.15;5.93;;;;;;;;;;5015418;28;20068;-72
2021/12/12 06:25:57;;;;;;;11.15;5.47;;;;;;;;;;5032818;28;20045;-73
2021/12/12 06:28:32;;;;;;;14.57;5.20;;;;;;;;;;5033841;28;20493;-75
2021/12/12 06:31:04;;;;;;;15.23;6.57;;;;;;;;;;5033953;28;20056;-73
2021/12/12 06:33:37;;;;;;;11.65;5.70;;;;;;;;;;5031001;28;20042;-73
2021/12/12 06:36:10;;;;;;;14.43;5.95;;;;;;;;;;5031523;28;20061;-73
2021/12/12 06:38:45;;;;;;;11.02;5.93;;;;;;;;;;5031439;28;20060;-73
2021/12/12 06:41:16;;;;;;;11.38;5.90;;;;;;;;;;5031596;28;20046;-72
2021/12/12 06:43:48;;;;;;;12.65;5.30;;;;;;;;;;5031433;28;20068;-74
2021/12/12 06:46:20;;;;;;;13.88;5.68;;;;;;;;;;5031148;28;20061;-73
2021/12/12 06:48:51;;;;;;;12.35;5.68;;;;;;;;;;5030991;28;20068;-73
2021/12/12 06:51:22;;;;;;;12.93;5.65;;;;;;;;;;5031439;28;20068;-73
2021/12/12 06:53:52;;;;;;;16.23;5.97;;;;;;;;;;5030827;28;20064;-72
2021/12/12 06:56:26;;;;;;;13.85;5.65;;;;;;;;;;5031182;28;20065;-72
2021/12/12 06:58:58;;;;;;;16.27;6.50;;;;;;;;;;4981951;28;20092;-72
2021/12/12 07:01:32;;;;;;;11.57;6.05;;;;;;;;;;5031102;28;20493;-73
2021/12/12 07:04:08;;;;;;;14.52;6.80;;;;;;;;;;5030492;28;20069;-72
2021/12/12 07:06:40;;;;;;;13.98;6.07;;;;;;;;;;5030991;28;20060;-73
2021/12/12 07:09:11;;;;;;;13.40;5.95;;;;;;;;;;4981412;28;20042;-73
2021/12/12 07:11:43;;;;;;;13.30;6.03;;;;;;;;;;5031020;28;20065;-72
2021/12/12 07:14:16;;;;;;;10.38;5.80;;;;;;;;;;5030805;28;20053;-72
2021/12/12 07:16:47;;;;;;;10.93;5.55;;;;;;;;;;4997792;28;20065;-73
2021/12/12 07:19:18;;;;;;;15.43;5.90;;;;;;;;;;5030555;28;20042;-73
2021/12/12 07:21:49;;;;;;;13.13;5.78;;;;;;;;;;5010836;28;20057;-73
2021/12/12 07:24:22;;;;;;;15.85;6.20;;;;;;;;;;4978039;28;20058;-73
2021/12/12 07:26:54;;;;;;;14.23;5.15;;;;;;;;;;5010359;28;20046;-72
2021/12/12 07:29:26;;;;;;;14.68;5.53;;;;;;;;;;5009782;28;20054;-75
2021/12/12 07:31:58;;;;;;;17.85;5.80;;;;;;;;;;4915796;28;20520;-75
2021/12/12 07:34:29;;;;;;;13.93;5.93;;;;;;;;;;4994184;28;20065;-72
2021/12/12 07:37:03;;;;;;;14.93;7.40;;;;;;;;;;5010441;28;20465;-72
2021/12/12 07:39:37;;;;;;;20.63;6.15;;;;;;;;;;5026168;28;20049;-73
2021/12/12 07:42:09;;;;;;;12.85;6.03;;;;;;;;;;4996667;28;20054;-73
2021/12/12 07:44:40;;;;;;;18.67;6.53;;;;;;;;;;4990933;28;20069;-72
2021/12/12 07:47:13;;;;;;;14.18;6.88;;;;;;;;;;4990910;28;20053;-72
2021/12/12 07:49:48;;;;;;;11.15;5.70;;;;;;;;;;4958409;28;20058;-74
2021/12/12 07:52:24;;;;;;;15.05;6.63;;;;;;;;;;4990939;28;20548;-73
2021/12/12 07:54:58;;;;;;;16.98;6.65;;;;;;;;;;4990637;28;20046;-73
2021/12/12 07:57:29;;;;;;;15.00;6.22;;;;;;;;;;4958265;28;20057;-73
2021/12/12 08:00:01;;;;;;;16.10;5.80;;;;;;;;;;4947006;28;20057;-73
2021/12/12 08:02:40;;;;;;;15.85;5.93;;;;;;;;;;5010247;28;20418;-73
2021/12/12 08:05:16;;;;;;;16.08;5.85;;;;;;;;;;5027462;28;20053;-72
2021/12/12 08:07:47;;;;;;;16.25;7.07;;;;;;;;;;5032349;28;20045;-73
2021/12/12 08:10:17;;;;;;;15.45;6.90;;;;;;;;;;5037847;28;20044;-74
2021/12/12 08:12:48;;;;;;;11.38;6.63;;;;;;;;;;5048208;28;20420;-72
2021/12/12 08:15:20;;;;;;;16.10;6.55;;;;;;;;;;5051655;28;20047;-73
2021/12/12 08:17:51;;;;;;;16.58;6.22;;;;;;;;;;5017458;28;20408;-73
2021/12/12 08:20:21;;;;;;;12.55;6.35;;;;;;;;;;5051950;28;20043;-73
2021/12/12 08:22:52;;;;;;;13.15;6.15;;;;;;;;;;5051693;28;20045;-72
2021/12/12 08:25:26;;;;;;;11.32;6.63;;;;;;;;;;5051880;28;20053;-73
2021/12/12 08:28:03;;;;;;;15.30;6.75;;;;;;;;;;5051674;28;20052;-73
2021/12/12 08:30:35;;;;;;;12.30;6.50;;;;;;;;;;5034320;28;20049;-72
2021/12/12 08:33:08;;;;;;;12.60;6.68;;;;;;;;;;5048985;28;20064;-73
2021/12/12 08:35:39;;;;;;;12.20;6.28;;;;;;;;;;5045469;28;20064;-72
2021/12/12 08:38:12;;;;;;;19.45;6.85;;;;;;;;;;5049230;28;20069;-73
2021/12/12 08:40:55;;;;;;;14.65;6.30;;;;;;;;;;5055547;28;20045;-72
2021/12/12 08:43:28;;;;;;;12.43;7.20;;;;;;;;;;5055923;28;20048;-72
2021/12/12 08:46:07;;;;;;;13.15;6.18;;;;;;;;;;5019236;28;20057;-73
2021/12/12 08:48:45;;;;;;;11.60;6.30;;;;;;;;;;4996389;28;20060;-72
2021/12/12 08:51:29;;;;;;;10.43;6.28;;;;;;;;;;4996327;28;20568;-74
2021/12/12 08:54:12;;;;;;;15.27;6.78;;;;;;;;;;4980733;28;20062;-72
2021/12/12 08:56:49;;;;;;;15.80;6.93;;;;;;;;;;4957410;29;20070;-73
2021/12/12 08:59:26;;;;;;;15.00;6.93;;;;;;;;;;4925943;29;20051;-74
2021/12/12 09:01:59;;;;;;;16.20;6.03;;;;;;;;;;4910243;29;20051;-72
2021/12/12 09:04:40;;;;;;;14.77;6.53;;;;;;;;;;4941801;29;20099;-74
2021/12/12 09:07:23;;;;;;;11.32;5.60;;;;;;;;;;4957548;29;20059;-73
2021/12/12 09:10:12;;;;;;;13.35;6.57;;;;;;;;;;4960755;28;20046;-73
2021/12/12 09:12:56;;;;;;;13.52;6.05;;;;;;;;;;4929329;28;20526;-72
2021/12/12 09:15:44;;;;;;;18.38;6.82;;;;;;;;;;4976633;28;20069;-73
2021/12/12 09:18:24;;;;;;;13.02;6.47;;;;;;;;;;4976515;28;20046;-73
2021/12/12 09:21:23;;;;;;;13.93;6.15;;;;;;;;;;4976602;28;20059;-72
2021/12/12 09:24:11;;;;;;;15.88;6.00;;;;;;;;;;4976670;28;20063;-72
2021/12/12 09:26:50;;;;;;;12.55;6.40;;;;;;;;;;5002962;28;20050;-73
2021/12/12 09:29:26;;;;;;;14.48;8.18;;;;;;;;;;5015905;28;20375;-73
2021/12/12 09:32:12;;;;;;;15.30;6.32;;;;;;;;;;5015679;28;20046;-73
2021/12/12 09:35:05;;;;;;;15.40;6.60;;;;;;;;;;4975767;28;20061;-73
2021/12/12 09:37:39;;;;;;;12.65;5.65;;;;;;;;;;4976820;28;20069;-73
2021/12/12 09:40:36;;;;;;;16.05;6.28;;;;;;;;;;4976130;28;20047;-72
2021/12/12 09:43:17;;;;;;;11.68;6.00;;;;;;;;;;4976716;28;20054;-73
2021/12/12 09:46:27;;;;;;;9.60;5.80;;;;;;;;;;4976267;28;20047;-72
2021/12/12 09:53:03;;;;;;;13.43;5.65;;;;;;;;;;4933960;29;20063;-73
2021/12/12 09:55:58;;;;;;;14.25;5.75;;;;;;;;;;4941451;29;20059;-74
2021/12/12 09:58:41;;;;;;;13.73;5.55;;;;;;;;;;4954232;28;20514;-74
2021/12/12 10:01:32;;;;;;;9.77;4.25;;;;;;;;;;4954306;28;20066;-72
2021/12/12 10:04:18;;;;;;;;;;;;;;;;;;4954300;28;20527;-71
2021/12/12 10:07:10;;;;;;;14.18;4.53;;;;;;;;;;4937885;29;19922;-73
2021/12/12 10:10:11;;;;;;;9.20;4.13;;;;;;;;;;4953883;29;20043;-74
2021/12/12 10:12:54;;;;;;;8.98;4.15;;;;;;;;;;4929132;29;20055;-72
2021/12/12 10:15:27;;;;;;;8.77;3.80;;;;;;;;;;4886669;29;20072;-72
2021/12/12 10:18:06;;;;;;;8.13;3.60;;;;;;;;;;4888623;29;20057;-73
2021/12/12 10:20:52;;;;;;;;;;;;;;;;;;4896915;29;20064;-72
2021/12/12 10:24:02;;;;;;;9.85;4.10;;;;;;;;;;4896475;29;19923;-72
2021/12/12 10:26:39;;;;;;;9.00;3.60;;;;;;;;;;4897141;29;20049;-72
2021/12/12 10:29:20;;;;;;;11.93;4.13;;;;;;;;;;4953464;29;20055;-72
2021/12/12 10:32:19;;;;;;;9.80;3.72;;;;;;;;;;4953768;29;20062;-72
2021/12/12 10:35:30;;;;;;;9.90;4.18;;;;;;;;;;4943254;29;20058;-72
2021/12/12 10:38:43;;;;;;;13.63;3.83;;;;;;;;;;4952823;29;20058;-73
2021/12/12 10:41:31;;;;;;;8.38;4.60;;;;;;;;;;4937737;28;20393;-72
2021/12/12 10:44:08;;;;;;;7.32;4.00;;;;;;;;;;4949525;28;20195;-72
2021/12/12 10:47:02;;;;;;;8.55;4.00;;;;;;;;;;4914904;29;20059;-71
2021/12/12 10:50:04;;;;;;;9.20;3.78;;;;;;;;;;4908016;29;20433;-72
2021/12/12 10:52:40;;;;;;;11.60;3.90;;;;;;;;;;4942142;28;20068;-70
2021/12/12 10:55:24;;;;;;;11.80;3.78;;;;;;;;;;4916720;29;20064;-71
2021/12/12 10:58:23;;;;;;;13.00;4.00;;;;;;;;;;4889570;29;20060;-72
2021/12/12 11:01:27;;;;;;;10.18;4.10;;;;;;;;;;4877329;29;20065;-71
2021/12/12 11:04:16;;;;;;;8.45;4.15;;;;;;;;;;4876402;29;20065;-71
2021/12/12 11:07:08;;;;;;;8.13;3.90;;;;;;;;;;4877458;29;20417;-71
2021/12/12 11:09:53;;;;;;;10.15;4.38;;;;;;;;;;4929523;29;20063;-72
2021/12/12 11:12:42;;;;;;;8.02;3.35;;;;;;;;;;4914182;29;20100;-70
2021/12/12 11:15:19;;;;;;;8.90;3.65;;;;;;;;;;4931475;28;20055;-70
2021/12/12 11:18:07;;;;;;;7.95;3.60;;;;;;;;;;4973815;28;20055;-69
2021/12/12 11:20:48;;;;;;;5.95;2.85;;;;;;;;;;4996588;28;20060;-70
2021/12/12 11:23:32;;;;;;;12.60;3.40;;;;;;;;;;4983427;28;20060;-69
2021/12/12 11:26:07;;;;;;;11.45;3.47;;;;;;;;;;5050673;28;20499;-69
2021/12/12 11:28:49;;;;;;;5.90;2.92;;;;;;;;;;5050397;28;21279;-69
2021/12/12 11:31:31;;;;;;;7.22;3.35;;;;;;;;;;5069523;28;20507;-70
2021/12/12 11:34:04;;;;;;;8.43;3.33;;;;;;;;;;5049908;28;20059;-70
2021/12/12 11:37:06;;;;;;;11.27;3.60;;;;;;;;;;4994479;28;20054;-66
2021/12/12 11:39:44;;;;;;;7.70;3.40;;;;;;;;;;4932991;29;20056;-67
2021/12/12 11:42:48;;;;;;;9.23;3.90;;;;;;;;;;4951809;29;20055;-67
2021/12/12 11:45:17;;;;;;;;;;;;;;;;;;4933108;29;20066;-67
2021/12/12 11:47:54;;;;;;;9.02;3.47;;;;;;;;;;4951626;29;19937;-67
2021/12/12 11:50:56;;;;;;;7.15;3.05;;;;;;;;;;4920176;29;20051;-67
2021/12/12 11:53:35;;;;;;;8.07;2.88;;;;;;;;;;4894926;29;20065;-67
2021/12/12 11:56:14;;;;;;;6.13;3.33;;;;;;;;;;4848470;29;20523;-68
2021/12/12 11:59:08;;;;;;;7.18;3.17;;;;;;;;;;4879564;29;20056;-67
2021/12/12 12:01:44;;;;;;;6.75;3.45;;;;;;;;;;4894659;29;20067;-67
2021/12/12 12:04:21;;;;;;;6.35;3.00;;;;;;;;;;4894789;29;20053;-65
2021/12/12 12:07:30;;;;;;;7.60;2.85;;;;;;;;;;4894486;29;20498;-64
2021/12/12 12:10:37;;;;;;;11.27;2.50;;;;;;;;;;4838246;29;20066;-68
2021/12/12 12:13:44;;;;;;;5.97;3.33;;;;;;;;;;4856809;29;20068;-64
2021/12/12 12:16:42;;;;;;;6.22;2.53;;;;;;;;;;4854315;29;20057;-71
2021/12/12 12:19:48;;;;;;;5.65;2.70;;;;;;;;;;4847335;29;20068;-67
2021/12/12 12:23:16;;;;;;;8.43;3.03;;;;;;;;;;4833417;29;20057;-66
2021/12/12 12:29:33;;;;;;;4.57;1.83;;;;;;;;;;4796308;29;20531;-64
2021/12/12 12:32:40;;;;;;;5.53;2.35;;;;;;;;;;4829982;29;20059;-67
2021/12/12 12:35:48;;;;;;;5.65;2.45;;;;;;;;;;4801231;29;20066;-63
2021/12/12 12:38:56;;;;;;;9.70;3.03;;;;;;;;;;4819572;29;20400;-66
2021/12/12 12:42:04;;;;;;;5.80;2.67;;;;;;;;;;4847018;29;20058;-67
2021/12/12 12:45:11;;;;;;;5.93;2.00;;;;;;;;;;4856443;29;20079;-66
2021/12/12 12:47:41;;;;;;;6.32;2.33;;;;;;;;;;4858413;29;20057;-64
2021/12/12 12:50:35;;;;;;;6.63;2.30;;;;;;;;;;4841977;29;20542;-66
2021/12/12 12:53:53;;;;;;;5.07;3.00;;;;;;;;;;4851712;29;20053;-67
2021/12/12 12:57:02;;;;;;;3.10;1.98;;;;;;;;;;4857865;29;20568;-66
2021/12/12 13:00:06;;;;;;;4.30;2.22;;;;;;;;;;4827907;29;20058;-66
2021/12/12 13:03:04;;;;;;;4.75;2.08;;;;;;;;;;4822197;29;20209;-67
2021/12/12 13:05:53;;;;;;;5.00;1.90;;;;;;;;;;4830132;29;20057;-63
2021/12/12 13:08:50;;;;;;;7.40;3.85;;;;;;;;;;4887877;29;20060;-69
2021/12/12 13:11:27;;;;;;;10.27;4.38;;;;;;;;;;4862559;29;20441;-64
2021/12/12 13:14:22;;;;;;;5.57;2.60;;;;;;;;;;4893158;29;20068;-66
2021/12/12 13:17:30;;;;;;;5.05;3.20;;;;;;;;;;4877037;29;20061;-64
2021/12/12 13:20:26;;;;;;;4.97;2.67;;;;;;;;;;4871293;29;20060;-63
2021/12/12 13:23:11;;;;;;;4.43;2.50;;;;;;;;;;4890613;29;20076;-66
2021/12/12 13:26:07;;;;;;;7.03;2.65;;;;;;;;;;4911020;29;20508;-65
2021/12/12 13:29:06;;;;;;;6.18;3.08;;;;;;;;;;4915898;29;20472;-64
2021/12/12 13:31:40;;;;;;;5.35;2.72;;;;;;;;;;4932690;29;20780;-67
2021/12/12 13:34:28;;;;;;;4.95;2.53;;;;;;;;;;4942154;28;20058;-65
2021/12/12 13:37:30;;;;;;;4.93;2.35;;;;;;;;;;4952939;28;20067;-64
2021/12/12 13:40:23;;;;;;;5.90;3.45;;;;;;;;;;4972833;28;20572;-65
2021/12/12 13:43:13;;;;;;;2.65;1.67;;;;;;;;;;4960297;28;20054;-66
2021/12/12 13:46:11;;;;;;;6.60;1.90;;;;;;;;;;4991088;28;20164;-66
2021/12/12 13:48:55;;;;;;;7.07;2.88;;;;;;;;;;4991625;28;20065;-65
2021/12/12 13:51:35;;;;;;;4.00;2.10;;;;;;;;;;4942290;28;20064;-64
2021/12/12 13:54:21;;;;;;;11.55;6.25;;;;;;;;;;4990211;28;20065;-63
2021/12/12 13:57:10;;;;;;;16.42;7.35;;;;;;;;;;4975183;28;20058;-65
2021/12/12 13:59:47;;;;;;;5.70;2.33;;;;;;;;;;4990622;28;20057;-65
2021/12/12 14:02:19;;;;;;;7.68;2.95;;;;;;;;;;4993795;28;20417;-67
2021/12/12 14:05:18;;;;;;;3.08;1.55;;;;;;;;;;4989748;28;20054;-68
2021/12/12 14:07:56;;;;;;;4.45;2.05;;;;;;;;;;4989179;28;20061;-67
2021/12/12 14:10:36;;;;;;;4.28;1.83;;;;;;;;;;4988136;28;20058;-65
2021/12/12 14:13:15;;;;;;;3.67;1.63;;;;;;;;;;4950100;29;20051;-63
2021/12/12 14:15:53;;;;;;;3.65;1.70;;;;;;;;;;4918253;29;20062;-65
2021/12/12 14:18:26;;;;;;;3.85;2.60;;;;;;;;;;4967600;28;20482;-67
2021/12/12 14:20:57;;;;;;;4.57;2.00;;;;;;;;;;4971992;28;20474;-63
2021/12/12 14:23:31;;;;;;;4.18;2.50;;;;;;;;;;4968424;28;20057;-65
2021/12/12 14:26:30;;;;;;;2.78;1.85;;;;;;;;;;4940086;28;20069;-68
2021/12/12 14:29:05;;;;;;;3.28;1.55;;;;;;;;;;4916113;29;20060;-65
2021/12/12 14:31:42;;;;;;;4.03;1.55;;;;;;;;;;4910609;29;20064;-65
2021/12/12 14:34:21;;;;;;;6.65;2.40;;;;;;;;;;4906052;29;20048;-64
2021/12/12 14:36:53;;;;;;;6.05;3.08;;;;;;;;;;4919195;29;20055;-66
2021/12/12 14:39:25;;;;;;;6.38;4.18;;;;;;;;;;4934970;29;20055;-64
2021/12/12 14:41:59;;;;;;;9.18;2.00;;;;;;;;;;4933695;29;20060;-65
2021/12/12 14:44:40;;;;;;;5.15;1.92;;;;;;;;;;4896058;29;20064;-65
2021/12/12 14:47:21;;;;;;;4.20;1.83;;;;;;;;;;4882243;29;20052;-64
2021/12/12 14:49:57;;;;;;;3.75;1.92;;;;;;;;;;4916038;29;20060;-65
2021/12/12 14:52:33;;;;;;;6.82;3.75;;;;;;;;;;4933608;29;20067;-68
2021/12/12 14:55:15;;;;;;;4.95;1.60;;;;;;;;;;4888373;29;20048;-64
2021/12/12 14:57:53;;;;;;;4.93;2.20;;;;;;;;;;4878636;29;20061;-64
2021/12/12 15:00:28;;;;;;;5.50;3.38;;;;;;;;;;4878460;29;20057;-64
2021/12/12 15:03:05;;;;;;;3.63;1.77;;;;;;;;;;4893257;29;20059;-65
2021/12/12 15:05:37;;;;;;;4.85;1.50;;;;;;;;;;4864333;29;20063;-62
2021/12/12 15:08:18;;;;;;;2.90;1.63;;;;;;;;;;4904664;29;20060;-65
2021/12/12 15:11:05;;;;;;;4.78;3.22;;;;;;;;;;4912057;29;20056;-68
2021/12/12 15:13:41;;;;;;;4.60;2.13;;;;;;;;;;4882678;29;20421;-66
2021/12/12 15:16:21;;;;;;;5.28;1.70;;;;;;;;;;4904037;29;20079;-65
2021/12/12 15:18:53;;;;;;;6.80;2.90;;;;;;;;;;4911672;29;20060;-65
2021/12/12 15:21:33;;;;;;;4.38;1.85;;;;;;;;;;4918693;29;20052;-66
2021/12/12 15:24:09;;;;;;;5.35;1.48;;;;;;;;;;4950799;28;20070;-65
2021/12/12 15:26:42;;;;;;;5.32;1.80;;;;;;;;;;4906997;28;20099;-66
2021/12/12 15:29:22;;;;;;;5.43;3.63;;;;;;;;;;4952406;28;20471;-65
2021/12/12 15:31:55;;;;;;;5.72;2.05;;;;;;;;;;4910030;28;20054;-66
2021/12/12 15:34:32;;;;;;;6.53;1.77;;;;;;;;;;4918496;29;20062;-66
2021/12/12 15:37:07;;;;;;;3.85;2.28;;;;;;;;;;4965262;28;20436;-64
2021/12/12 15:40:06;;;;;;;2.70;1.45;;;;;;;;;;4964001;28;20063;-64
2021/12/12 15:42:39;;;;;;;3.03;1.70;;;;;;;;;;4991741;28;20053;-64
2021/12/12 15:45:21;;;;;;;4.55;1.70;;;;;;;;;;5009449;28;20088;-65
2021/12/12 15:47:52;;;;;;;5.05;1.50;;;;;;;;;;5006816;28;20057;-68
2021/12/12 15:50:35;;;;;;;2.28;1.52;;;;;;;;;;4993348;28;20066;-64
2021/12/12 15:53:18;;;;;;;4.35;1.70;;;;;;;;;;5009721;28;20050;-64
2021/12/12 15:55:57;;;;;;;2.97;1.70;;;;;;;;;;4946877;28;20061;-66
2021/12/12 15:58:34;;;;;;;4.13;1.85;;;;;;;;;;4899751;29;20056;-66
2021/12/12 16:01:12;;;;;;;4.22;1.75;;;;;;;;;;4913670;29;20063;-65
2021/12/12 16:03:53;;;;;;;3.78;1.80;;;;;;;;;;4903671;29;20052;-64
2021/12/12 16:06:37;;;;;;;3.58;2.13;;;;;;;;;;4935987;28;20060;-64
2021/12/12 16:09:21;;;;;;;5.32;1.63;;;;;;;;;;4943056;28;20058;-65
2021/12/12 16:12:15;;;;;;;3.20;1.60;;;;;;;;;;4919940;29;20055;-64
2021/12/12 16:14:54;;;;;;;4.00;1.67;;;;;;;;;;4924236;29;20055;-73
2021/12/12 16:17:32;;;;;;;2.45;1.45;;;;;;;;;;4929308;29;22950;-65
2021/12/12 16:20:22;;;;;;;4.95;1.52;;;;;;;;;;4902006;29;21588;-65